sensor_id;sensor_type;location;lat;lon;timestamp;pressure;altitude;pressure_sealevel;temperature;humidity
45403;BME280;47427;51.976;5.326;2022-10-16T00:00:13;100888.41;;;11.93;94.77
45403;BME280;47427;51.976;5.326;2022-10-16T00:03:35;100883.25;;;11.98;94.29
45403;BME280;47427;51.976;5.326;2022-10-16T00:06:58;100899.94;;;12.00;94.70
45403;BME280;47427;51.976;5.326;2022-10-16T00:10:21;100893.94;;;12.07;94.31
45403;BME280;47427;51.976;5.326;2022-10-16T00:13:45;100893.25;;;12.18;94.15
45403;BME280;47427;51.976;5.326;2022-10-16T00:17:11;100883.81;;;12.26;93.44
45403;BME280;47427;51.976;5.326;2022-10-16T00:20:52;100897.84;;;12.26;93.59
45403;BME280;47427;51.976;5.326;2022-10-16T00:24:15;100898.78;;;12.30;93.50
45403;BME280;47427;51.976;5.326;2022-10-16T00:27:38;100900.81;;;12.45;93.11
45403;BME280;47427;51.976;5.326;2022-10-16T00:31:13;100888.72;;;12.54;92.82
45403;BME280;47427;51.976;5.326;2022-10-16T00:34:36;100899.34;;;12.59;92.68
45403;BME280;47427;51.976;5.326;2022-10-16T00:37:59;100889.66;;;12.58;92.61
45403;BME280;47427;51.976;5.326;2022-10-16T00:41:23;100902.22;;;12.71;92.48
45403;BME280;47427;51.976;5.326;2022-10-16T00:44:52;100893.50;;;12.75;92.29
45403;BME280;47427;51.976;5.326;2022-10-16T00:48:22;100892.56;;;12.73;92.23
45403;BME280;47427;51.976;5.326;2022-10-16T00:51:50;100905.13;;;12.87;92.11
45403;BME280;47427;51.976;5.326;2022-10-16T00:55:15;100895.34;;;12.81;92.02
45403;BME280;47427;51.976;5.326;2022-10-16T00:58:38;100909.53;;;12.88;91.75
45403;BME280;47427;51.976;5.326;2022-10-16T01:02:02;100906.94;;;12.91;91.66
45403;BME280;47427;51.976;5.326;2022-10-16T01:05:44;100910.41;;;12.88;92.04
45403;BME280;47427;51.976;5.326;2022-10-16T01:13:21;100876.03;;;12.80;91.78
45403;BME280;47427;51.976;5.326;2022-10-16T01:16:57;100907.19;;;13.06;91.47
45403;BME280;47427;51.976;5.326;2022-10-16T01:20:32;100906.41;;;13.10;91.39
45403;BME280;47427;51.976;5.326;2022-10-16T01:27:40;100922.03;;;13.01;91.87
45403;BME280;47427;51.976;5.326;2022-10-16T01:31:27;100915.06;;;13.03;91.91
45403;BME280;47427;51.976;5.326;2022-10-16T01:34:59;100910.56;;;12.97;92.08
45403;BME280;47427;51.976;5.326;2022-10-16T01:38:35;100903.47;;;12.92;92.89
45403;BME280;47427;51.976;5.326;2022-10-16T01:42:07;100896.41;;;12.91;93.02
45403;BME280;47427;51.976;5.326;2022-10-16T01:45:33;100890.94;;;12.80;93.23
45403;BME280;47427;51.976;5.326;2022-10-16T01:48:58;100887.44;;;12.81;93.30
45403;BME280;47427;51.976;5.326;2022-10-16T01:52:26;100884.69;;;12.73;93.98
45403;BME280;47427;51.976;5.326;2022-10-16T01:55:53;100889.25;;;12.84;93.90
45403;BME280;47427;51.976;5.326;2022-10-16T01:59:21;100890.06;;;12.79;94.22
45403;BME280;47427;51.976;5.326;2022-10-16T02:02:49;100884.81;;;12.79;94.04
45403;BME280;47427;51.976;5.326;2022-10-16T02:06:14;100890.81;;;12.72;94.23
45403;BME280;47427;51.976;5.326;2022-10-16T02:09:37;100899.41;;;12.62;94.83
45403;BME280;47427;51.976;5.326;2022-10-16T02:13:10;100901.16;;;12.62;95.31
45403;BME280;47427;51.976;5.326;2022-10-16T02:16:43;100904.78;;;12.68;95.14
45403;BME280;47427;51.976;5.326;2022-10-16T02:20:07;100910.16;;;12.74;94.98
45403;BME280;47427;51.976;5.326;2022-10-16T02:28:11;100916.31;;;12.75;95.41
45403;BME280;47427;51.976;5.326;2022-10-16T02:31:41;100914.22;;;12.57;95.70
45403;BME280;47427;51.976;5.326;2022-10-16T02:35:07;100905.16;;;12.43;96.86
45403;BME280;47427;51.976;5.326;2022-10-16T02:38:31;100917.78;;;12.59;96.56
45403;BME280;47427;51.976;5.326;2022-10-16T02:41:54;100915.25;;;12.64;96.19
45403;BME280;47427;51.976;5.326;2022-10-16T02:45:18;100895.47;;;12.40;96.41
45403;BME280;47427;51.976;5.326;2022-10-16T02:48:40;100912.59;;;12.20;98.05
45403;BME280;47427;51.976;5.326;2022-10-16T02:52:03;100917.19;;;12.28;98.40
45403;BME280;47427;51.976;5.326;2022-10-16T02:55:26;100927.91;;;12.39;98.20
45403;BME280;47427;51.976;5.326;2022-10-16T02:58:50;100908.66;;;12.42;98.04
45403;BME280;47427;51.976;5.326;2022-10-16T03:02:12;100915.69;;;12.43;97.97
45403;BME280;47427;51.976;5.326;2022-10-16T03:05:35;100896.44;;;12.44;97.98
45403;BME280;47427;51.976;5.326;2022-10-16T03:08:58;100900.69;;;12.37;98.38
45403;BME280;47427;51.976;5.326;2022-10-16T03:12:21;100905.22;;;12.44;98.07
45403;BME280;47427;51.976;5.326;2022-10-16T03:15:44;100905.94;;;12.37;98.36
45403;BME280;47427;51.976;5.326;2022-10-16T03:19:07;100904.03;;;12.28;98.83
45403;BME280;47427;51.976;5.326;2022-10-16T03:22:29;100913.72;;;12.31;98.81
45403;BME280;47427;51.976;5.326;2022-10-16T03:25:52;100903.09;;;12.26;98.98
45403;BME280;47427;51.976;5.326;2022-10-16T03:29:15;100910.94;;;12.23;98.97
45403;BME280;47427;51.976;5.326;2022-10-16T03:32:37;100918.94;;;12.29;99.34
45403;BME280;47427;51.976;5.326;2022-10-16T03:36:00;100932.03;;;12.26;99.25
45403;BME280;47427;51.976;5.326;2022-10-16T03:39:23;100915.28;;;12.23;99.00
45403;BME280;47427;51.976;5.326;2022-10-16T03:42:46;100932.22;;;12.35;99.05
45403;BME280;47427;51.976;5.326;2022-10-16T03:46:08;100928.59;;;12.30;99.08
45403;BME280;47427;51.976;5.326;2022-10-16T03:49:50;100932.16;;;12.31;98.73
45403;BME280;47427;51.976;5.326;2022-10-16T03:53:13;100932.88;;;12.24;99.42
45403;BME280;47427;51.976;5.326;2022-10-16T03:56:35;100929.53;;;12.32;98.94
45403;BME280;47427;51.976;5.326;2022-10-16T03:59:58;100937.50;;;12.37;98.82
45403;BME280;47427;51.976;5.326;2022-10-16T04:03:21;100947.94;;;12.31;99.00
45403;BME280;47427;51.976;5.326;2022-10-16T04:06:44;100953.03;;;12.25;99.06
45403;BME280;47427;51.976;5.326;2022-10-16T04:10:07;100960.72;;;12.14;99.55
45403;BME280;47427;51.976;5.326;2022-10-16T04:13:30;100963.44;;;12.19;99.77
45403;BME280;47427;51.976;5.326;2022-10-16T04:16:52;100971.47;;;12.25;99.55
45403;BME280;47427;51.976;5.326;2022-10-16T04:20:15;100982.75;;;12.19;99.79
45403;BME280;47427;51.976;5.326;2022-10-16T04:23:37;100987.06;;;12.17;99.96
45403;BME280;47427;51.976;5.326;2022-10-16T04:27:00;100971.94;;;12.05;100.00
45403;BME280;47427;51.976;5.326;2022-10-16T04:30:24;100994.03;;;12.13;100.00
45403;BME280;47427;51.976;5.326;2022-10-16T04:33:46;100986.72;;;12.00;100.00
45403;BME280;47427;51.976;5.326;2022-10-16T04:37:09;100994.44;;;11.94;100.00
45403;BME280;47427;51.976;5.326;2022-10-16T04:40:32;100999.44;;;11.83;100.00
45403;BME280;47427;51.976;5.326;2022-10-16T04:43:55;101000.06;;;11.73;100.00
45403;BME280;47427;51.976;5.326;2022-10-16T04:47:18;101005.97;;;11.63;100.00
45403;BME280;47427;51.976;5.326;2022-10-16T04:50:41;101015.47;;;11.58;100.00
45403;BME280;47427;51.976;5.326;2022-10-16T04:54:04;101026.06;;;11.61;100.00
45403;BME280;47427;51.976;5.326;2022-10-16T04:57:27;101027.63;;;11.53;100.00
45403;BME280;47427;51.976;5.326;2022-10-16T05:00:50;101025.72;;;11.47;100.00
45403;BME280;47427;51.976;5.326;2022-10-16T05:04:12;101023.03;;;11.45;100.00
45403;BME280;47427;51.976;5.326;2022-10-16T05:07:37;101028.19;;;11.41;100.00
45403;BME280;47427;51.976;5.326;2022-10-16T05:11:00;101035.19;;;11.42;100.00
45403;BME280;47427;51.976;5.326;2022-10-16T05:14:22;101038.94;;;11.50;100.00
45403;BME280;47427;51.976;5.326;2022-10-16T05:18:04;101056.84;;;11.65;100.00
45403;BME280;47427;51.976;5.326;2022-10-16T05:21:26;101069.50;;;11.81;100.00
45403;BME280;47427;51.976;5.326;2022-10-16T05:24:49;101063.59;;;11.90;100.00
45403;BME280;47427;51.976;5.326;2022-10-16T05:28:12;101058.31;;;11.88;100.00
45403;BME280;47427;51.976;5.326;2022-10-16T05:31:34;101058.03;;;11.78;100.00
45403;BME280;47427;51.976;5.326;2022-10-16T05:34:57;101056.66;;;11.59;100.00
45403;BME280;47427;51.976;5.326;2022-10-16T05:38:22;101062.78;;;11.59;100.00
45403;BME280;47427;51.976;5.326;2022-10-16T05:41:45;101072.00;;;11.77;100.00
45403;BME280;47427;51.976;5.326;2022-10-16T05:45:10;101069.78;;;11.92;100.00
45403;BME280;47427;51.976;5.326;2022-10-16T05:48:33;101078.97;;;12.09;100.00
45403;BME280;47427;51.976;5.326;2022-10-16T05:51:56;101085.28;;;12.16;100.00
45403;BME280;47427;51.976;5.326;2022-10-16T05:55:18;101107.38;;;12.24;100.00
45403;BME280;47427;51.976;5.326;2022-10-16T05:58:41;101100.53;;;12.32;100.00
45403;BME280;47427;51.976;5.326;2022-10-16T06:02:04;101089.19;;;12.33;100.00
45403;BME280;47427;51.976;5.326;2022-10-16T06:05:27;101095.38;;;12.37;100.00
45403;BME280;47427;51.976;5.326;2022-10-16T06:08:50;101095.44;;;12.40;100.00
45403;BME280;47427;51.976;5.326;2022-10-16T06:12:12;101100.75;;;12.42;100.00
45403;BME280;47427;51.976;5.326;2022-10-16T06:15:35;101114.97;;;12.50;100.00
45403;BME280;47427;51.976;5.326;2022-10-16T06:18:58;101130.00;;;12.55;100.00
45403;BME280;47427;51.976;5.326;2022-10-16T06:22:22;101123.09;;;12.59;99.83
45403;BME280;47427;51.976;5.326;2022-10-16T06:26:11;101128.31;;;12.57;99.96
45403;BME280;47427;51.976;5.326;2022-10-16T06:29:34;101148.66;;;12.65;99.68
45403;BME280;47427;51.976;5.326;2022-10-16T06:32:57;101141.53;;;12.61;99.35
45403;BME280;47427;51.976;5.326;2022-10-16T06:36:20;101158.47;;;12.73;99.19
45403;BME280;47427;51.976;5.326;2022-10-16T06:39:43;101161.34;;;12.83;98.62
45403;BME280;47427;51.976;5.326;2022-10-16T06:43:05;101166.72;;;12.87;98.23
45403;BME280;47427;51.976;5.326;2022-10-16T06:46:28;101163.25;;;12.90;98.34
45403;BME280;47427;51.976;5.326;2022-10-16T06:49:51;101178.41;;;13.00;97.73
45403;BME280;47427;51.976;5.326;2022-10-16T06:53:14;101188.38;;;13.15;97.29
45403;BME280;47427;51.976;5.326;2022-10-16T06:56:36;101177.25;;;13.28;96.70
45403;BME280;47427;51.976;5.326;2022-10-16T07:00:00;101186.25;;;13.38;96.01
45403;BME280;47427;51.976;5.326;2022-10-16T07:03:22;101211.44;;;13.68;95.75
45403;BME280;47427;51.976;5.326;2022-10-16T07:06:45;101205.25;;;13.67;94.69
45403;BME280;47427;51.976;5.326;2022-10-16T07:10:08;101208.25;;;13.40;94.80
45403;BME280;47427;51.976;5.326;2022-10-16T07:13:34;101225.88;;;13.42;94.92
45403;BME280;47427;51.976;5.326;2022-10-16T07:16:56;101224.59;;;13.25;96.33
45403;BME280;47427;51.976;5.326;2022-10-16T07:20:20;101243.59;;;13.50;95.75
45403;BME280;47427;51.976;5.326;2022-10-16T07:23:43;101234.25;;;13.65;94.91
45403;BME280;47427;51.976;5.326;2022-10-16T07:27:06;101222.41;;;13.45;95.41
45403;BME280;47427;51.976;5.326;2022-10-16T07:30:29;101229.34;;;13.41;95.55
45403;BME280;47427;51.976;5.326;2022-10-16T07:33:52;101233.38;;;13.65;94.87
45403;BME280;47427;51.976;5.326;2022-10-16T07:37:14;101236.22;;;13.77;93.96
45403;BME280;47427;51.976;5.326;2022-10-16T07:40:37;101245.16;;;13.84;93.91
45403;BME280;47427;51.976;5.326;2022-10-16T07:44:00;101244.06;;;13.73;93.50
45403;BME280;47427;51.976;5.326;2022-10-16T07:47:23;101266.34;;;13.44;94.58
45403;BME280;47427;51.976;5.326;2022-10-16T07:50:45;101274.94;;;13.36;95.34
45403;BME280;47427;51.976;5.326;2022-10-16T07:54:09;101294.53;;;15.51;91.33
45403;BME280;47427;51.976;5.326;2022-10-16T07:57:32;101282.94;;;17.18;83.89
45403;BME280;47427;51.976;5.326;2022-10-16T08:00:56;101290.47;;;19.11;71.71
45403;BME280;47427;51.976;5.326;2022-10-16T08:04:18;101290.09;;;20.12;67.80
45403;BME280;47427;51.976;5.326;2022-10-16T08:07:41;101299.88;;;21.21;65.78
45403;BME280;47427;51.976;5.326;2022-10-16T08:11:04;101308.13;;;22.47;61.30
45403;BME280;47427;51.976;5.326;2022-10-16T08:14:27;101308.56;;;22.75;57.93
45403;BME280;47427;51.976;5.326;2022-10-16T08:18:01;101321.78;;;23.35;54.74
45403;BME280;47427;51.976;5.326;2022-10-16T08:21:46;101319.44;;;23.64;55.38
45403;BME280;47427;51.976;5.326;2022-10-16T08:25:09;101316.13;;;23.94;53.99
45403;BME280;47427;51.976;5.326;2022-10-16T08:28:32;101320.81;;;24.25;49.38
45403;BME280;47427;51.976;5.326;2022-10-16T08:31:55;101315.53;;;24.20;50.00
45403;BME280;47427;51.976;5.326;2022-10-16T08:35:18;101319.22;;;24.57;48.00
45403;BME280;47427;51.976;5.326;2022-10-16T08:38:40;101334.16;;;24.67;48.12
45403;BME280;47427;51.976;5.326;2022-10-16T08:42:42;101329.16;;;24.89;46.92
45403;BME280;47427;51.976;5.326;2022-10-16T08:50:29;101340.72;;;26.77;42.13
45403;BME280;47427;51.976;5.326;2022-10-16T08:54:50;101350.53;;;26.50;43.09
45403;BME280;47427;51.976;5.326;2022-10-16T08:57:48;101352.03;;;25.38;44.28
45403;BME280;47427;51.976;5.326;2022-10-16T09:01:15;101348.25;;;25.11;45.11
45403;BME280;47427;51.976;5.326;2022-10-16T09:05:36;101359.06;;;26.36;42.95
45403;BME280;47427;51.976;5.326;2022-10-16T09:13:29;101365.94;;;27.28;41.70
45403;BME280;47427;51.976;5.326;2022-10-16T09:17:00;101368.44;;;27.84;39.11
45403;BME280;47427;51.976;5.326;2022-10-16T09:20:32;101363.91;;;29.40;39.63
45403;BME280;47427;51.976;5.326;2022-10-16T09:24:16;101374.53;;;30.05;36.02
45403;BME280;47427;51.976;5.326;2022-10-16T09:27:37;101368.97;;;29.48;36.36
45403;BME280;47427;51.976;5.326;2022-10-16T09:30:59;101374.06;;;29.14;36.99
45403;BME280;47427;51.976;5.326;2022-10-16T09:34:34;101375.34;;;30.07;34.88
45403;BME280;47427;51.976;5.326;2022-10-16T09:37:58;101387.75;;;29.92;35.21
45403;BME280;47427;51.976;5.326;2022-10-16T09:41:22;101378.28;;;30.21;34.58
45403;BME280;47427;51.976;5.326;2022-10-16T09:44:48;101378.59;;;32.09;33.34
45403;BME280;47427;51.976;5.326;2022-10-16T09:48:17;101386.25;;;32.34;32.62
45403;BME280;47427;51.976;5.326;2022-10-16T09:51:40;101392.53;;;30.06;34.75
45403;BME280;47427;51.976;5.326;2022-10-16T09:55:15;101390.34;;;29.74;35.78
45403;BME280;47427;51.976;5.326;2022-10-16T09:58:43;101391.34;;;31.91;32.16
45403;BME280;47427;51.976;5.326;2022-10-16T10:02:15;101394.03;;;33.79;30.33
45403;BME280;47427;51.976;5.326;2022-10-16T10:05:39;101384.47;;;33.57;29.00
45403;BME280;47427;51.976;5.326;2022-10-16T10:09:21;101390.47;;;31.04;33.05
45403;BME280;47427;51.976;5.326;2022-10-16T10:12:45;101395.13;;;33.76;29.52
45403;BME280;47427;51.976;5.326;2022-10-16T10:16:07;101387.00;;;30.47;32.22
45403;BME280;47427;51.976;5.326;2022-10-16T10:19:28;101395.75;;;29.74;33.79
45403;BME280;47427;51.976;5.326;2022-10-16T10:22:51;101404.81;;;33.66;29.00
45403;BME280;47427;51.976;5.326;2022-10-16T10:26:20;101407.91;;;32.03;30.76
45403;BME280;47427;51.976;5.326;2022-10-16T10:30:01;101406.22;;;29.62;34.84
45403;BME280;47427;51.976;5.326;2022-10-16T10:41:15;101407.97;;;32.19;29.68
45403;BME280;47427;51.976;5.326;2022-10-16T10:45:11;101424.00;;;33.49;28.98
45403;BME280;47427;51.976;5.326;2022-10-16T10:48:54;101428.50;;;35.06;26.09
45403;BME280;47427;51.976;5.326;2022-10-16T10:53:44;101407.13;;;34.72;26.90
45403;BME280;47427;51.976;5.326;2022-10-16T10:57:08;101425.88;;;33.32;27.79
45403;BME280;47427;51.976;5.326;2022-10-16T11:00:56;101424.06;;;31.19;30.36
45403;BME280;47427;51.976;5.326;2022-10-16T11:04:47;101433.41;;;27.76;33.56
45403;BME280;47427;51.976;5.326;2022-10-16T11:12:00;101415.69;;;24.61;41.62
45403;BME280;47427;51.976;5.326;2022-10-16T11:15:36;101435.97;;;25.48;39.09
45403;BME280;47427;51.976;5.326;2022-10-16T11:19:23;101447.47;;;27.59;35.78
45403;BME280;47427;51.976;5.326;2022-10-16T11:22:57;101448.66;;;28.73;34.00
45403;BME280;47427;51.976;5.326;2022-10-16T11:26:41;101438.81;;;29.99;33.75
45403;BME280;47427;51.976;5.326;2022-10-16T11:30:26;101457.22;;;27.63;34.91
45403;BME280;47427;51.976;5.326;2022-10-16T11:33:55;101446.78;;;29.62;32.83
45403;BME280;47427;51.976;5.326;2022-10-16T11:37:28;101443.78;;;33.06;27.39
45403;BME280;47427;51.976;5.326;2022-10-16T11:40:54;101449.38;;;32.06;29.53
45403;BME280;47427;51.976;5.326;2022-10-16T11:48:49;101457.69;;;35.45;23.91
45403;BME280;47427;51.976;5.326;2022-10-16T11:52:42;101452.94;;;34.80;25.40
45403;BME280;47427;51.976;5.326;2022-10-16T11:56:06;101469.94;;;36.67;22.44
45403;BME280;47427;51.976;5.326;2022-10-16T11:59:57;101463.44;;;35.28;22.73
45403;BME280;47427;51.976;5.326;2022-10-16T12:03:36;101478.06;;;35.92;23.71
45403;BME280;47427;51.976;5.326;2022-10-16T12:07:15;101469.69;;;35.43;23.61
45403;BME280;47427;51.976;5.326;2022-10-16T12:10:42;101474.84;;;31.69;26.59
45403;BME280;47427;51.976;5.326;2022-10-16T12:17:37;101478.59;;;34.20;24.23
45403;BME280;47427;51.976;5.326;2022-10-16T12:20:59;101475.97;;;34.19;24.42
45403;BME280;47427;51.976;5.326;2022-10-16T12:24:39;101470.31;;;34.65;23.60
45403;BME280;47427;51.976;5.326;2022-10-16T12:28:19;101483.31;;;35.30;23.88
45403;BME280;47427;51.976;5.326;2022-10-16T12:31:46;101483.53;;;35.39;23.19
45403;BME280;47427;51.976;5.326;2022-10-16T12:35:43;101486.19;;;34.44;24.02
45403;BME280;47427;51.976;5.326;2022-10-16T12:39:27;101488.88;;;34.01;25.93
45403;BME280;47427;51.976;5.326;2022-10-16T12:42:49;101487.88;;;32.30;27.36
45403;BME280;47427;51.976;5.326;2022-10-16T12:49:37;101477.72;;;31.83;28.47
45403;BME280;47427;51.976;5.326;2022-10-16T12:53:04;101479.97;;;35.25;25.71
45403;BME280;47427;51.976;5.326;2022-10-16T13:00:56;101475.31;;;35.79;23.72
45403;BME280;47427;51.976;5.326;2022-10-16T13:04:22;101489.69;;;36.84;22.59
45403;BME280;47427;51.976;5.326;2022-10-16T13:12:16;101474.97;;;33.91;24.70
45403;BME280;47427;51.976;5.326;2022-10-16T13:16:05;101488.22;;;34.69;24.22
45403;BME280;47427;51.976;5.326;2022-10-16T13:30:59;101490.69;;;30.30;29.61
45403;BME280;47427;51.976;5.326;2022-10-16T13:34:23;101503.47;;;28.28;30.51
45403;BME280;47427;51.976;5.326;2022-10-16T13:37:46;101505.22;;;27.26;32.80
45403;BME280;47427;51.976;5.326;2022-10-16T13:41:17;101486.38;;;26.68;32.42
45403;BME280;47427;51.976;5.326;2022-10-16T13:44:50;101489.22;;;27.21;33.56
45403;BME280;47427;51.976;5.326;2022-10-16T13:48:12;101495.75;;;26.84;34.68
45403;BME280;47427;51.976;5.326;2022-10-16T13:51:34;101480.19;;;26.34;35.71
45403;BME280;47427;51.976;5.326;2022-10-16T13:54:55;101500.44;;;26.16;37.32
45403;BME280;47427;51.976;5.326;2022-10-16T13:58:18;101501.09;;;25.92;37.26
45403;BME280;47427;51.976;5.326;2022-10-16T14:01:44;101501.78;;;25.64;37.28
45403;BME280;47427;51.976;5.326;2022-10-16T14:05:09;101511.19;;;25.48;39.01
45403;BME280;47427;51.976;5.326;2022-10-16T14:08:32;101506.28;;;25.29;38.66
45403;BME280;47427;51.976;5.326;2022-10-16T14:12:06;101514.13;;;25.00;39.05
45403;BME280;47427;51.976;5.326;2022-10-16T14:15:31;101507.38;;;25.21;38.29
45403;BME280;47427;51.976;5.326;2022-10-16T14:19:03;101503.13;;;24.70;38.86
45403;BME280;47427;51.976;5.326;2022-10-16T14:22:40;101495.91;;;25.50;38.31
45403;BME280;47427;51.976;5.326;2022-10-16T14:29:31;101501.38;;;26.45;36.59
45403;BME280;47427;51.976;5.326;2022-10-16T14:33:00;101498.91;;;25.72;37.42
45403;BME280;47427;51.976;5.326;2022-10-16T14:36:24;101511.97;;;24.32;39.88
45403;BME280;47427;51.976;5.326;2022-10-16T14:39:52;101505.22;;;23.63;41.15
45403;BME280;47427;51.976;5.326;2022-10-16T14:43:26;101508.34;;;23.35;41.95
45403;BME280;47427;51.976;5.326;2022-10-16T14:46:50;101503.19;;;23.21;44.17
45403;BME280;47427;51.976;5.326;2022-10-16T14:50:13;101496.16;;;23.17;44.43
45403;BME280;47427;51.976;5.326;2022-10-16T14:53:35;101496.09;;;23.19;44.62
45403;BME280;47427;51.976;5.326;2022-10-16T14:56:58;101495.53;;;22.95;43.39
45403;BME280;47427;51.976;5.326;2022-10-16T15:00:23;101494.34;;;22.54;45.45
45403;BME280;47427;51.976;5.326;2022-10-16T15:03:45;101492.63;;;22.47;46.09
45403;BME280;47427;51.976;5.326;2022-10-16T15:07:08;101498.81;;;22.54;47.30
45403;BME280;47427;51.976;5.326;2022-10-16T15:10:35;101503.38;;;22.42;48.66
45403;BME280;47427;51.976;5.326;2022-10-16T15:13:59;101500.75;;;22.38;49.46
45403;BME280;47427;51.976;5.326;2022-10-16T15:17:22;101495.56;;;22.28;48.46
45403;BME280;47427;51.976;5.326;2022-10-16T15:20:45;101498.28;;;22.18;48.33
45403;BME280;47427;51.976;5.326;2022-10-16T15:24:12;101498.59;;;21.90;49.36
45403;BME280;47427;51.976;5.326;2022-10-16T15:27:35;101498.78;;;21.73;50.12
45403;BME280;47427;51.976;5.326;2022-10-16T15:31:04;101488.38;;;21.41;51.14
45403;BME280;47427;51.976;5.326;2022-10-16T15:34:26;101508.16;;;21.08;52.74
45403;BME280;47427;51.976;5.326;2022-10-16T15:37:49;101505.75;;;20.60;54.33
45403;BME280;47427;51.976;5.326;2022-10-16T15:41:10;101499.69;;;20.18;56.10
45403;BME280;47427;51.976;5.326;2022-10-16T15:44:33;101505.94;;;19.99;57.08
45403;BME280;47427;51.976;5.326;2022-10-16T15:47:56;101500.66;;;19.82;58.24
45403;BME280;47427;51.976;5.326;2022-10-16T15:51:18;101501.56;;;19.72;58.85
45403;BME280;47427;51.976;5.326;2022-10-16T15:54:41;101490.00;;;19.53;59.63
45403;BME280;47427;51.976;5.326;2022-10-16T15:58:04;101499.78;;;19.40;60.08
45403;BME280;47427;51.976;5.326;2022-10-16T16:01:26;101492.66;;;19.30;60.69
45403;BME280;47427;51.976;5.326;2022-10-16T16:04:50;101499.75;;;19.18;61.42
45403;BME280;47427;51.976;5.326;2022-10-16T16:08:11;101502.41;;;19.04;61.77
45403;BME280;47427;51.976;5.326;2022-10-16T16:11:34;101506.81;;;18.98;61.97
45403;BME280;47427;51.976;5.326;2022-10-16T16:15:01;101489.94;;;18.90;62.72
45403;BME280;47427;51.976;5.326;2022-10-16T16:18:22;101512.13;;;18.95;63.35
45403;BME280;47427;51.976;5.326;2022-10-16T16:21:47;101506.78;;;18.87;63.56
45403;BME280;47427;51.976;5.326;2022-10-16T16:25:09;101507.66;;;18.77;64.08
45403;BME280;47427;51.976;5.326;2022-10-16T16:28:32;101511.13;;;18.63;64.63
45403;BME280;47427;51.976;5.326;2022-10-16T16:31:55;101515.50;;;18.55;65.31
45403;BME280;47427;51.976;5.326;2022-10-16T16:35:18;101519.03;;;18.50;65.26
45403;BME280;47427;51.976;5.326;2022-10-16T16:38:41;101516.31;;;18.37;65.98
45403;BME280;47427;51.976;5.326;2022-10-16T16:42:03;101525.16;;;18.32;65.92
45403;BME280;47427;51.976;5.326;2022-10-16T16:45:27;101531.28;;;18.25;66.28
45403;BME280;47427;51.976;5.326;2022-10-16T16:48:50;101545.44;;;18.19;67.00
45403;BME280;47427;51.976;5.326;2022-10-16T16:52:31;101532.06;;;18.04;67.62
45403;BME280;47427;51.976;5.326;2022-10-16T16:55:52;101543.53;;;18.00;68.08
45403;BME280;47427;51.976;5.326;2022-10-16T16:59:19;101540.84;;;17.93;68.35
45403;BME280;47427;51.976;5.326;2022-10-16T17:02:41;101524.84;;;17.87;68.51
45403;BME280;47427;51.976;5.326;2022-10-16T17:09:50;101545.97;;;17.73;69.23
45403;BME280;47427;51.976;5.326;2022-10-16T17:13:13;101552.97;;;17.67;69.80
45403;BME280;47427;51.976;5.326;2022-10-16T17:16:37;101533.50;;;17.60;70.04
45403;BME280;47427;51.976;5.326;2022-10-16T17:20:00;101537.88;;;17.55;69.96
45403;BME280;47427;51.976;5.326;2022-10-16T17:23:22;101544.91;;;17.51;70.12
45403;BME280;47427;51.976;5.326;2022-10-16T17:27:04;101543.91;;;17.37;70.62
45403;BME280;47427;51.976;5.326;2022-10-16T17:30:25;101538.56;;;17.32;70.78
45403;BME280;47427;51.976;5.326;2022-10-16T17:34:08;101546.44;;;17.25;71.61
45403;BME280;47427;51.976;5.326;2022-10-16T17:37:33;101562.41;;;17.29;71.69
45403;BME280;47427;51.976;5.326;2022-10-16T17:40:55;101567.66;;;17.26;71.44
45403;BME280;47427;51.976;5.326;2022-10-16T17:44:18;101567.63;;;17.23;71.94
45403;BME280;47427;51.976;5.326;2022-10-16T17:47:40;101566.66;;;17.15;72.02
45403;BME280;47427;51.976;5.326;2022-10-16T17:51:08;101571.84;;;17.06;72.46
45403;BME280;47427;51.976;5.326;2022-10-16T17:54:32;101559.44;;;17.02;72.18
45403;BME280;47427;51.976;5.326;2022-10-16T17:57:54;101562.81;;;16.88;73.01
45403;BME280;47427;51.976;5.326;2022-10-16T18:01:30;101561.00;;;16.81;73.37
45403;BME280;47427;51.976;5.326;2022-10-16T18:04:52;101551.16;;;16.76;73.95
45403;BME280;47427;51.976;5.326;2022-10-16T18:08:16;101550.97;;;16.59;74.40
45403;BME280;47427;51.976;5.326;2022-10-16T18:11:38;101559.78;;;16.59;74.69
45403;BME280;47427;51.976;5.326;2022-10-16T18:15:00;101578.34;;;16.59;75.12
45403;BME280;47427;51.976;5.326;2022-10-16T18:18:23;101569.41;;;16.51;74.98
45403;BME280;47427;51.976;5.326;2022-10-16T18:21:45;101575.56;;;16.49;74.89
45403;BME280;47427;51.976;5.326;2022-10-16T18:25:08;101604.69;;;16.50;75.35
45403;BME280;47427;51.976;5.326;2022-10-16T18:28:32;101620.66;;;16.55;75.47
45403;BME280;47427;51.976;5.326;2022-10-16T18:31:53;101614.50;;;16.57;75.58
45403;BME280;47427;51.976;5.326;2022-10-16T18:35:35;101620.69;;;16.58;75.47
45403;BME280;47427;51.976;5.326;2022-10-16T18:38:59;101632.13;;;16.55;75.77
45403;BME280;47427;51.976;5.326;2022-10-16T18:42:22;101628.56;;;16.52;75.85
45403;BME280;47427;51.976;5.326;2022-10-16T18:46:03;101632.97;;;16.53;75.66
45403;BME280;47427;51.976;5.326;2022-10-16T18:49:26;101627.69;;;16.51;75.81
45403;BME280;47427;51.976;5.326;2022-10-16T18:52:49;101630.38;;;16.54;75.96
45403;BME280;47427;51.976;5.326;2022-10-16T18:56:12;101626.75;;;16.49;76.23
45403;BME280;47427;51.976;5.326;2022-10-16T18:59:38;101633.03;;;16.56;76.02
45403;BME280;47427;51.976;5.326;2022-10-16T19:03:00;101630.44;;;16.59;76.28
45403;BME280;47427;51.976;5.326;2022-10-16T19:06:23;101624.97;;;16.48;76.42
45403;BME280;47427;51.976;5.326;2022-10-16T19:09:46;101603.56;;;16.33;76.49